首页
METAR-TAF:

METAR-TAF

机场 :

图尔库机场

圖爾庫, 芬兰

纬度: 60-31N, 经度: 022-16E, 海拔: 49米

当前天气观测

该预报发布于11分钟前的01:50 UTC
风速6节,风向
温度 15°C
湿度 77%
气压 1013 hPa
能见度10公里或以上
1500米以下无云,无积雨云

METAR: EFTU 220150Z AUTO 08006KT CAVOK 15/11 Q1013

时间: 05:01 (02:01 UTC)

预报

该预报发布于2小时和37分钟前的23:24 UTC
预报有效从22日的 00点(UTC)到 22日的 24点(UTC)
风速4节,风向
能见度10公里或以上
1500米以下无云,无积雨云
成为
从 22日的 07点(UTC)到 22日的 09点(UTC)
多云层高于3000英尺, 积雨云.
几率 30% :
短暂存在
从 22日的 09点(UTC)到 22日的 15点(UTC)
能見度: 5000
阵雨
成为
从 22日的 16点(UTC)到 22日的 18点(UTC)
能见度10公里或以上
1500米以下无云,无积雨云

TAF: EFTU 212324Z 2200/2224 09004KT CAVOK BECMG 2207/2209 BKN030CB PROB30 TEMPO 2209/2215 5000 SHRA BECMG 2216/2218 CAVOK

超过4000个机场的气象观测和天气预报(METAR&TAF报告)。

可查询的气象台以黄色和红色小点在地图上表示。

将鼠标移到小点上方,可查看气象台名称。

然后点击查看天气观测和预报。

如需切换地图:点击带黑十字的绿色按钮放大地图;点击带横线的绿色按钮缩小地图;或者点击绿色箭头查看邻近地区的地图。


METAR-TAF: